createdAt,value
2018-10-01T00:00:17.983Z,100648.61
2018-10-01T00:02:48.323Z,100650.66
2018-10-01T00:05:18.699Z,100653.45
2018-10-01T00:07:49.099Z,100651.04
2018-10-01T00:10:19.652Z,100653.91
2018-10-01T00:12:50.258Z,100662.05
2018-10-01T00:15:20.554Z,100659.41
2018-10-01T00:17:51.096Z,100656.31
2018-10-01T00:20:26.378Z,100652.92
2018-10-01T00:22:56.796Z,100653.48
2018-10-01T00:25:27.291Z,100647.46
2018-10-01T00:27:57.889Z,100648.09
2018-10-01T00:30:28.376Z,100651.85
2018-10-01T00:32:58.782Z,100649.42
2018-10-01T00:35:29.210Z,100652.33
2018-10-01T00:37:59.608Z,100649.38
2018-10-01T00:40:29.979Z,100647.89
2018-10-01T00:43:11.972Z,100650.97
2018-10-01T00:45:42.421Z,100645.47
2018-10-01T00:48:12.980Z,100650.05
2018-10-01T00:50:43.391Z,100647.73
2018-10-01T00:53:13.714Z,100651.35
2018-10-01T00:55:44.213Z,100645.89
2018-10-01T00:58:14.711Z,100640.75
2018-10-01T01:00:45.311Z,100642.12
2018-10-01T01:03:15.655Z,100645.09
2018-10-01T01:05:45.933Z,100645.64
2018-10-01T01:08:16.500Z,100650.16
2018-10-01T01:10:46.808Z,100643.02
2018-10-01T01:13:17.509Z,100649.27
2018-10-01T01:15:47.879Z,100637.67
2018-10-01T01:18:19.152Z,100639.03
2018-10-01T01:20:49.665Z,100640.84
2018-10-01T01:23:20.131Z,100642.70
2018-10-01T01:25:50.316Z,100651.25
2018-10-01T01:28:20.684Z,100638.78
2018-10-01T01:30:50.984Z,100631.38
2018-10-01T01:33:21.444Z,100625.62
2018-10-01T01:35:51.716Z,100631.30
2018-10-01T01:38:36.896Z,100628.80
2018-10-01T01:41:07.533Z,100628.38
2018-10-01T01:43:38.148Z,100625.39
2018-10-01T01:46:08.708Z,100617.66
2018-10-01T01:48:39.086Z,100616.59
2018-10-01T01:51:09.847Z,100619.58
2018-10-01T01:53:40.140Z,100616.66
2018-10-01T01:56:10.603Z,100614.36
2018-10-01T01:58:41.104Z,100613.55
2018-10-01T02:01:11.398Z,100622.98
2018-10-01T02:03:41.653Z,100615.08
2018-10-01T02:06:12.035Z,100616.37
2018-10-01T02:08:42.388Z,100611.89
2018-10-01T02:11:12.815Z,100618.52
2018-10-01T02:13:43.144Z,100619.00
2018-10-01T02:16:13.551Z,100610.83
2018-10-01T02:18:44.058Z,100611.49
2018-10-01T02:21:14.519Z,100607.22
2018-10-01T02:23:44.862Z,100596.84
2018-10-01T02:26:15.176Z,100589.16
2018-10-01T02:28:45.635Z,100582.22
2018-10-01T02:31:15.940Z,100575.31
2018-10-01T02:33:46.520Z,100571.39
2018-10-01T02:36:16.917Z,100580.41
2018-10-01T02:38:47.272Z,100583.86
2018-10-01T02:41:18.091Z,100584.97
2018-10-01T02:43:48.537Z,100581.30
2018-10-01T02:46:19.045Z,100577.41
2018-10-01T02:48:49.410Z,100578.06
2018-10-01T02:51:19.583Z,100579.64
2018-10-01T02:53:55.027Z,100578.22
2018-10-01T02:56:25.367Z,100581.95
2018-10-01T02:58:55.841Z,100571.77
2018-10-01T03:01:26.128Z,100580.47
2018-10-01T03:03:56.379Z,100575.27
2018-10-01T03:06:26.799Z,100575.05
2018-10-01T03:08:57.246Z,100573.50
2018-10-01T03:11:27.548Z,100566.41
2018-10-01T03:13:57.802Z,100564.56
2018-10-01T03:16:28.229Z,100559.89
2018-10-01T03:18:58.671Z,100559.00
2018-10-01T03:21:29.060Z,100558.87
2018-10-01T03:23:59.416Z,100552.34
2018-10-01T03:26:29.719Z,100551.71
2018-10-01T03:29:00.768Z,100551.31
2018-10-01T03:31:31.167Z,100556.75
2018-10-01T03:34:01.677Z,100556.92
2018-10-01T03:36:32.052Z,100548.17
2018-10-01T03:39:02.422Z,100550.76
2018-10-01T03:41:32.694Z,100554.83
2018-10-01T03:44:03.168Z,100550.27
2018-10-01T03:46:33.494Z,100554.50
2018-10-01T03:49:03.756Z,100559.77
2018-10-01T03:51:34.115Z,100565.53
2018-10-01T03:54:04.540Z,100558.21
2018-10-01T03:56:34.998Z,100559.06
2018-10-01T03:59:05.468Z,100556.41
2018-10-01T04:01:35.667Z,100553.23
2018-10-01T04:04:06.000Z,100553.50
2018-10-01T04:06:36.388Z,100556.27
2018-10-01T04:09:08.999Z,100556.08
2018-10-01T04:11:39.835Z,100556.63
2018-10-01T04:14:10.385Z,100558.65
2018-10-01T04:16:40.768Z,100559.30
2018-10-01T04:19:11.179Z,100558.19
2018-10-01T04:21:41.592Z,100561.77
2018-10-01T04:24:12.008Z,100559.19
2018-10-01T04:26:42.301Z,100560.98
2018-10-01T04:29:13.979Z,100553.60
2018-10-01T04:31:45.516Z,100557.81
2018-10-01T04:34:16.156Z,100556.45
2018-10-01T04:36:46.603Z,100560.59
2018-10-01T04:39:17.268Z,100567.05
2018-10-01T04:41:47.765Z,100568.03
2018-10-01T04:44:18.038Z,100571.44
2018-10-01T04:46:48.320Z,100573.53
2018-10-01T04:49:18.861Z,100580.75
2018-10-01T04:51:49.179Z,100581.98
2018-10-01T04:54:19.540Z,100584.71
2018-10-01T04:56:49.710Z,100579.72
2018-10-01T04:59:20.185Z,100585.82
2018-10-01T05:01:50.497Z,100589.61
2018-10-01T05:04:20.747Z,100589.14
2018-10-01T05:06:51.239Z,100583.18
2018-10-01T05:09:21.625Z,100585.38
2018-10-01T05:11:52.085Z,100583.22
2018-10-01T05:14:22.584Z,100575.22
2018-10-01T05:16:53.728Z,100573.27
2018-10-01T05:19:24.172Z,100585.24
2018-10-01T05:21:54.651Z,100584.91
2018-10-01T05:24:24.893Z,100579.72
2018-10-01T05:26:55.241Z,100578.55
2018-10-01T05:29:26.361Z,100584.91
2018-10-01T05:31:56.684Z,100585.63
2018-10-01T05:34:27.132Z,100592.77
2018-10-01T05:36:57.595Z,100594.58
2018-10-01T05:39:28.221Z,100601.44
2018-10-01T05:41:58.718Z,100601.00
2018-10-01T05:44:29.383Z,100604.33
2018-10-01T05:46:59.898Z,100597.31
2018-10-01T05:49:30.349Z,100608.72
2018-10-01T05:52:00.737Z,100598.03
2018-10-01T05:54:31.200Z,100605.73
2018-10-01T05:57:01.681Z,100608.33
2018-10-01T05:59:32.040Z,100616.41
2018-10-01T06:02:02.338Z,100614.68
2018-10-01T06:04:32.603Z,100618.75
2018-10-01T06:07:03.033Z,100622.23
2018-10-01T06:09:33.492Z,100619.65
2018-10-01T06:12:03.751Z,100629.34
2018-10-01T06:14:34.248Z,100631.28
2018-10-01T06:17:29.900Z,100627.94
2018-10-01T06:20:00.422Z,100630.92
2018-10-01T06:22:30.798Z,100634.11
2018-10-01T06:25:01.306Z,100634.61
2018-10-01T06:27:31.753Z,100634.72
2018-10-01T06:30:02.214Z,100632.64
2018-10-01T06:32:33.235Z,100633.23
2018-10-01T06:35:03.762Z,100633.03
2018-10-01T06:37:34.060Z,100636.48
2018-10-01T06:40:04.784Z,100637.00
2018-10-01T06:42:35.036Z,100635.18
2018-10-01T06:45:05.613Z,100641.95
2018-10-01T06:47:36.117Z,100637.44
2018-10-01T06:50:06.592Z,100644.55
2018-10-01T06:52:36.858Z,100644.78
2018-10-01T06:55:07.564Z,100653.63
2018-10-01T06:57:38.016Z,100657.98
2018-10-01T07:00:09.860Z,100659.36
2018-10-01T07:02:40.113Z,100655.87
2018-10-01T07:05:10.932Z,100665.00
2018-10-01T07:07:41.417Z,100663.19
2018-10-01T07:10:11.863Z,100666.91
2018-10-01T07:12:42.244Z,100671.64
2018-10-01T07:15:12.819Z,100676.31
2018-10-01T07:17:43.425Z,100677.30
2018-10-01T07:20:13.791Z,100683.56
2018-10-01T07:22:44.148Z,100681.95
2018-10-01T07:25:14.756Z,100684.16
2018-10-01T07:27:45.251Z,100692.64
2018-10-01T07:30:15.719Z,100695.13
2018-10-01T07:32:46.097Z,100693.94
2018-10-01T07:35:16.609Z,100698.14
2018-10-01T07:37:47.068Z,100701.20
2018-10-01T07:40:17.447Z,100703.19
2018-10-01T07:42:47.814Z,100709.67
2018-10-01T07:45:18.412Z,100711.83
2018-10-01T07:47:49.435Z,100704.53
2018-10-01T07:50:19.864Z,100712.63
2018-10-01T07:52:51.060Z,100711.86
2018-10-01T07:55:21.452Z,100713.70
2018-10-01T07:57:51.812Z,100713.44
2018-10-01T08:00:22.232Z,100722.17
2018-10-01T08:02:52.731Z,100718.98
2018-10-01T08:05:22.989Z,100723.61
2018-10-01T08:07:53.364Z,100727.06
2018-10-01T08:10:23.812Z,100730.72
2018-10-01T08:12:54.289Z,100727.78
2018-10-01T08:15:24.715Z,100728.34
2018-10-01T08:17:55.099Z,100733.47
2018-10-01T08:20:25.656Z,100735.75
2018-10-01T08:22:55.949Z,100741.65
2018-10-01T08:25:26.489Z,100746.02
2018-10-01T08:27:56.696Z,100747.73
2018-10-01T08:30:27.068Z,100754.71
2018-10-01T08:32:57.471Z,100753.45
2018-10-01T08:35:28.003Z,100759.63
2018-10-01T08:37:58.932Z,100760.25
2018-10-01T08:40:36.155Z,100763.74
2018-10-01T08:43:06.561Z,100769.61
2018-10-01T08:45:37.159Z,100764.20
2018-10-01T08:48:07.849Z,100769.34
2018-10-01T08:50:43.544Z,100768.32
2018-10-01T08:55:28.252Z,100765.45
2018-10-01T08:57:58.746Z,100758.34
2018-10-01T09:00:29.325Z,100755.10
2018-10-01T09:02:59.739Z,100756.78
2018-10-01T09:05:30.336Z,100753.55
2018-10-01T09:08:00.889Z,100757.18
2018-10-01T09:10:31.128Z,100754.20
2018-10-01T09:13:02.031Z,100759.53
2018-10-01T09:15:32.553Z,100763.60
2018-10-01T09:18:03.040Z,100758.11
2018-10-01T09:20:33.428Z,100757.58
2018-10-01T09:23:04.053Z,100757.77
2018-10-01T09:25:34.268Z,100757.83
2018-10-01T09:28:04.741Z,100757.66
2018-10-01T09:30:35.212Z,100756.03
2018-10-01T09:33:05.671Z,100745.76
2018-10-01T09:35:36.396Z,100747.54
2018-10-01T09:38:07.243Z,100751.57
2018-10-01T09:40:37.773Z,100748.00
2018-10-01T09:43:08.338Z,100749.38
2018-10-01T09:45:39.233Z,100747.48
2018-10-01T09:48:09.808Z,100752.34
2018-10-01T09:50:40.229Z,100744.52
2018-10-01T09:53:10.488Z,100748.78
2018-10-01T09:55:40.960Z,100737.80
2018-10-01T09:58:11.462Z,100742.77
2018-10-01T10:00:42.775Z,100742.50
2018-10-01T10:03:13.403Z,100756.48
2018-10-01T10:05:43.914Z,100753.41
2018-10-01T10:08:14.436Z,100757.94
2018-10-01T10:10:44.965Z,100749.47
2018-10-01T10:13:15.350Z,100743.62
2018-10-01T10:15:45.745Z,100737.09
2018-10-01T10:18:16.230Z,100740.45
2018-10-01T10:20:46.797Z,100746.96
2018-10-01T10:23:17.279Z,100753.75
2018-10-01T10:25:47.764Z,100755.73
2018-10-01T10:28:18.497Z,100758.02
2018-10-01T10:30:48.835Z,100756.18
2018-10-01T10:33:19.326Z,100757.38
2018-10-01T10:35:49.779Z,100753.07
2018-10-01T10:38:20.274Z,100746.14
2018-10-01T10:40:50.767Z,100746.75
2018-10-01T10:43:21.101Z,100746.02
2018-10-01T10:45:51.452Z,100741.91
2018-10-01T10:48:25.023Z,100743.77
2018-10-01T10:50:55.477Z,100745.34
2018-10-01T10:53:25.981Z,100772.02
2018-10-01T10:55:56.357Z,100792.80
2018-10-01T10:58:26.621Z,100803.23
2018-10-01T11:00:57.197Z,100812.70
2018-10-01T11:03:27.482Z,100808.64
2018-10-01T11:05:58.413Z,100807.68
2018-10-01T11:08:28.910Z,100801.09
2018-10-01T11:10:59.563Z,100796.34
2018-10-01T11:13:29.954Z,100796.44
2018-10-01T11:16:01.137Z,100794.66
2018-10-01T11:18:31.556Z,100795.05
2018-10-01T11:21:02.011Z,100781.42
2018-10-01T11:23:32.289Z,100779.42
2018-10-01T11:26:02.641Z,100768.23
2018-10-01T11:28:33.093Z,100768.70
2018-10-01T11:31:03.547Z,100768.77
2018-10-01T11:33:34.035Z,100761.28
2018-10-01T11:36:04.653Z,100758.34
2018-10-01T11:38:34.968Z,100751.52
2018-10-01T11:41:05.514Z,100753.45
2018-10-01T11:43:35.912Z,100760.50
2018-10-01T11:46:06.409Z,100753.55
2018-10-01T11:48:36.895Z,100756.66
2018-10-01T11:51:07.580Z,100746.40
2018-10-01T11:53:37.854Z,100753.08
2018-10-01T11:56:08.361Z,100753.46
2018-10-01T11:58:38.708Z,100758.04
2018-10-01T12:01:09.497Z,100757.20
2018-10-01T12:03:40.000Z,100761.86
2018-10-01T12:06:10.459Z,100762.97
2018-10-01T12:08:41.056Z,100757.11
2018-10-01T12:11:11.623Z,100762.93
2018-10-01T12:13:42.126Z,100760.35
2018-10-01T12:16:12.588Z,100754.12
2018-10-01T12:18:42.951Z,100751.01
2018-10-01T12:21:13.553Z,100753.06
2018-10-01T12:23:43.941Z,100749.87
2018-10-01T12:26:14.430Z,100747.62
2018-10-01T12:28:44.712Z,100748.53
2018-10-01T12:31:15.119Z,100761.71
2018-10-01T12:33:45.590Z,100765.58
2018-10-01T12:36:16.240Z,100762.78
2018-10-01T12:39:05.338Z,100781.34
2018-10-01T12:41:35.739Z,100802.28
2018-10-01T12:44:06.351Z,100795.89
2018-10-01T12:46:36.784Z,100793.47
2018-10-01T12:49:07.190Z,100802.84
2018-10-01T12:51:37.623Z,100809.23
2018-10-01T12:54:08.151Z,100806.00
2018-10-01T12:56:38.720Z,100809.63
2018-10-01T12:59:09.427Z,100813.52
2018-10-01T13:01:39.792Z,100806.99
2018-10-01T13:04:10.273Z,100809.51
2018-10-01T13:06:40.700Z,100810.42
2018-10-01T13:09:13.046Z,100812.16
2018-10-01T13:11:43.469Z,100805.17
2018-10-01T13:14:13.847Z,100808.75
2018-10-01T13:16:44.196Z,100812.77
2018-10-01T13:19:14.582Z,100812.83
2018-10-01T13:21:44.965Z,100809.33
2018-10-01T13:24:15.778Z,100812.88
2018-10-01T13:26:46.243Z,100810.83
2018-10-01T13:29:16.448Z,100814.61
2018-10-01T13:31:46.864Z,100811.23
2018-10-01T13:34:17.259Z,100817.73
2018-10-01T13:36:47.853Z,100820.33
2018-10-01T13:39:18.012Z,100811.52
2018-10-01T13:41:48.493Z,100811.58
2018-10-01T13:44:19.081Z,100810.17
2018-10-01T13:46:49.501Z,100811.28
2018-10-01T13:49:19.999Z,100819.20
2018-10-01T13:51:50.553Z,100818.42
2018-10-01T13:54:21.195Z,100821.84
2018-10-01T13:56:51.352Z,100829.27
2018-10-01T13:59:21.696Z,100826.44
2018-10-01T14:01:52.100Z,100826.42
2018-10-01T14:04:22.468Z,100835.53
2018-10-01T14:06:52.811Z,100838.92
2018-10-01T14:09:23.300Z,100835.23
2018-10-01T14:11:53.788Z,100848.11
2018-10-01T14:14:24.303Z,100852.03
2018-10-01T14:16:55.166Z,100852.39
2018-10-01T14:19:25.703Z,100854.18
2018-10-01T14:21:56.037Z,100854.36
2018-10-01T14:24:26.648Z,100860.65
2018-10-01T14:26:57.248Z,100866.25
2018-10-01T14:29:27.451Z,100876.83
2018-10-01T14:31:57.961Z,100883.55
2018-10-01T14:34:28.419Z,100887.16
2018-10-01T14:36:59.053Z,100882.64
2018-10-01T14:39:29.388Z,100891.31
2018-10-01T14:41:59.896Z,100892.14
2018-10-01T14:44:30.350Z,100901.55
2018-10-01T14:47:00.934Z,100900.97
2018-10-01T14:49:31.263Z,100913.36
2018-10-01T14:52:01.586Z,100924.33
2018-10-01T14:54:31.917Z,100941.61
2018-10-01T14:57:02.505Z,100940.02
2018-10-01T14:59:32.963Z,100962.55
2018-10-01T15:02:03.535Z,100957.51
2018-10-01T15:04:34.037Z,100953.51
2018-10-01T15:07:04.289Z,100958.86
2018-10-01T15:09:34.767Z,100957.83
2018-10-01T15:12:05.359Z,100959.42
2018-10-01T15:14:35.736Z,100968.36
2018-10-01T15:17:06.418Z,100960.98
2018-10-01T15:19:36.924Z,100969.48
2018-10-01T15:22:07.325Z,100961.91
2018-10-01T15:24:37.661Z,100952.53
2018-10-01T15:27:08.243Z,100948.23
2018-10-01T15:29:38.651Z,100944.12
2018-10-01T15:32:09.300Z,100939.47
2018-10-01T15:34:39.716Z,100947.56
2018-10-01T15:37:09.976Z,100950.86
2018-10-01T15:39:40.448Z,100938.06
2018-10-01T15:42:11.047Z,100939.62
2018-10-01T15:44:42.172Z,100934.70
2018-10-01T15:47:12.471Z,100941.40
2018-10-01T15:49:42.919Z,100944.68
2018-10-01T15:52:13.304Z,100946.63
2018-10-01T15:54:43.860Z,100943.74
2018-10-01T15:57:14.243Z,100942.13
2018-10-01T15:59:44.884Z,100939.45
2018-10-01T16:02:15.388Z,100939.45
2018-10-01T16:04:45.791Z,100944.86
2018-10-01T16:07:16.080Z,100955.89
2018-10-01T16:09:46.427Z,100952.38
2018-10-01T16:12:17.409Z,100962.44
2018-10-01T16:14:47.824Z,100959.19
2018-10-01T16:17:18.150Z,100965.27
2018-10-01T16:19:48.506Z,100970.08
2018-10-01T16:22:19.063Z,100973.44
2018-10-01T16:24:49.440Z,100974.08
2018-10-01T16:27:19.818Z,100980.02
2018-10-01T16:29:50.248Z,100980.16
2018-10-01T16:32:20.641Z,100986.67
2018-10-01T16:34:51.128Z,100994.55
2018-10-01T16:37:21.609Z,101001.67
2018-10-01T16:39:51.923Z,100995.37
2018-10-01T16:42:22.185Z,100999.19
2018-10-01T16:44:52.465Z,100997.55
2018-10-01T16:47:22.963Z,101005.44
2018-10-01T16:49:53.543Z,101010.12
2018-10-01T16:52:24.023Z,101012.42
2018-10-01T16:54:54.297Z,101012.84
2018-10-01T16:57:24.540Z,101019.27
2018-10-01T16:59:54.954Z,101015.27
2018-10-01T17:02:25.527Z,101021.64
2018-10-01T17:04:56.029Z,101031.06
2018-10-01T17:07:26.976Z,101036.48
2018-10-01T17:09:57.486Z,101049.56
2018-10-01T17:12:27.954Z,101050.39
2018-10-01T17:14:58.372Z,101054.14
2018-10-01T17:17:28.920Z,101064.77
2018-10-01T17:19:59.224Z,101072.84
2018-10-01T17:22:29.565Z,101073.45
2018-10-01T17:24:59.948Z,101083.66
2018-10-01T17:27:30.424Z,101082.67
2018-10-01T17:30:00.858Z,101085.52
2018-10-01T17:32:31.051Z,101088.11
2018-10-01T17:35:01.384Z,101093.98
2018-10-01T17:37:31.881Z,101098.91
2018-10-01T17:40:02.383Z,101101.99
2018-10-01T17:42:32.939Z,101097.77
2018-10-01T17:45:03.221Z,101100.25
2018-10-01T17:47:33.696Z,101093.80
2018-10-01T17:50:04.018Z,101098.13
2018-10-01T17:52:34.281Z,101109.18
2018-10-01T17:55:04.555Z,101102.67
2018-10-01T17:57:34.962Z,101110.06
2018-10-01T18:00:05.917Z,101112.44
2018-10-01T18:02:36.388Z,101117.91
2018-10-01T18:05:07.328Z,101113.05
2018-10-01T18:07:37.948Z,101120.03
2018-10-01T18:10:08.924Z,101121.84
2018-10-01T18:12:39.434Z,101124.57
2018-10-01T18:15:10.680Z,101120.96
2018-10-01T18:17:41.118Z,101134.02
2018-10-01T18:20:11.596Z,101135.61
2018-10-01T18:22:42.159Z,101124.06
2018-10-01T18:25:12.967Z,101135.30
2018-10-01T18:27:43.347Z,101138.41
2018-10-01T18:30:13.789Z,101138.71
2018-10-01T18:32:44.176Z,101140.55
2018-10-01T18:35:14.616Z,101147.77
2018-10-01T18:37:45.127Z,101155.05
2018-10-01T18:40:15.948Z,101157.65
2018-10-01T18:42:46.923Z,101159.03
2018-10-01T18:45:17.328Z,101167.97
2018-10-01T18:47:47.860Z,101166.44
2018-10-01T18:50:18.139Z,101174.19
2018-10-01T18:52:48.664Z,101171.60
2018-10-01T18:55:19.052Z,101173.63
2018-10-01T18:57:49.471Z,101180.81
2018-10-01T19:00:20.091Z,101172.15
2018-10-01T19:02:51.044Z,101166.86
2018-10-01T19:05:21.516Z,101166.93
2018-10-01T19:07:51.883Z,101168.31
2018-10-01T19:10:22.315Z,101176.44
2018-10-01T19:12:52.732Z,101168.92
2018-10-01T19:15:23.139Z,101170.39
2018-10-01T19:17:53.547Z,101165.27
2018-10-01T19:20:23.971Z,101165.64
2018-10-01T19:22:54.968Z,101176.80
2018-10-01T19:25:25.543Z,101171.21
2018-10-01T19:27:56.033Z,101174.02
2018-10-01T19:30:26.551Z,101179.80
2018-10-01T19:32:57.368Z,101180.89
2018-10-01T19:35:27.865Z,101183.80
2018-10-01T19:37:58.278Z,101187.77
2018-10-01T19:40:28.736Z,101199.52
2018-10-01T19:42:59.317Z,101198.09
2018-10-01T19:45:29.795Z,101201.87
2018-10-01T19:48:00.443Z,101204.55
2018-10-01T19:50:30.834Z,101207.17
2018-10-01T19:53:28.429Z,101208.09
2018-10-01T19:55:58.979Z,101208.74
2018-10-01T19:58:29.330Z,101210.44
2018-10-01T20:00:59.843Z,101214.23
2018-10-01T20:03:30.364Z,101208.33
2018-10-01T20:06:00.789Z,101214.51
2018-10-01T20:08:31.263Z,101213.21
2018-10-01T20:11:01.811Z,101217.49
2018-10-01T20:13:32.249Z,101215.06
2018-10-01T20:16:02.640Z,101215.98
2018-10-01T20:18:33.251Z,101219.18
2018-10-01T20:21:03.838Z,101214.11
2018-10-01T20:23:34.464Z,101218.63
2018-10-01T20:26:04.745Z,101215.12
2018-10-01T20:28:35.274Z,101224.81
2018-10-01T20:31:05.519Z,101224.45
2018-10-01T20:33:35.987Z,101219.25
2018-10-01T20:36:06.423Z,101224.90
2018-10-01T20:38:36.738Z,101223.75
2018-10-01T20:41:07.240Z,101232.55
2018-10-01T20:43:37.692Z,101226.77
2018-10-01T20:46:08.207Z,101229.95
2018-10-01T20:48:38.439Z,101228.22
2018-10-01T20:51:08.868Z,101234.13
2018-10-01T20:53:39.384Z,101226.87
2018-10-01T20:56:09.849Z,101228.55
2018-10-01T20:58:40.351Z,101232.57
2018-10-01T21:01:10.997Z,101228.64
2018-10-01T21:03:41.256Z,101220.31
2018-10-01T21:06:11.748Z,101224.73
2018-10-01T21:08:42.136Z,101225.06
2018-10-01T21:11:12.633Z,101228.41
2018-10-01T21:13:43.084Z,101227.26
2018-10-01T21:16:13.514Z,101235.03
2018-10-01T21:18:44.143Z,101240.44
2018-10-01T21:21:14.556Z,101235.38
2018-10-01T21:23:45.148Z,101232.16
2018-10-01T21:26:15.710Z,101239.95
2018-10-01T21:28:46.178Z,101234.38
2018-10-01T21:31:16.801Z,101233.29
2018-10-01T21:33:48.039Z,101233.83
2018-10-01T21:36:18.471Z,101237.41
2018-10-01T21:38:49.012Z,101224.39
2018-10-01T21:41:19.737Z,101226.55
2018-10-01T21:43:50.187Z,101226.02
2018-10-01T21:46:20.693Z,101222.34
2018-10-01T21:48:50.949Z,101227.59
2018-10-01T21:51:21.348Z,101233.63
2018-10-01T21:53:51.823Z,101231.47
2018-10-01T21:56:22.313Z,101226.47
2018-10-01T21:58:52.775Z,101228.59
2018-10-01T22:01:28.010Z,101231.55
2018-10-01T22:03:58.250Z,101233.37
2018-10-01T22:06:28.627Z,101230.88
2018-10-01T22:08:59.215Z,101228.67
2018-10-01T22:11:29.598Z,101222.02
2018-10-01T22:13:59.959Z,101220.62
2018-10-01T22:16:30.442Z,101227.72
2018-10-01T22:19:00.937Z,101228.55
2018-10-01T22:21:31.211Z,101227.14
2018-10-01T22:24:01.628Z,101222.18
2018-10-01T22:26:31.840Z,101233.77
2018-10-01T22:29:02.256Z,101232.78
2018-10-01T22:31:32.648Z,101226.77
2018-10-01T22:34:03.195Z,101225.89
2018-10-01T22:36:33.455Z,101221.95
2018-10-01T22:39:04.831Z,101219.38
2018-10-01T22:41:35.173Z,101224.07
2018-10-01T22:44:05.648Z,101231.19
2018-10-01T22:46:36.295Z,101223.27
2018-10-01T22:49:06.823Z,101227.33
2018-10-01T22:51:37.519Z,101226.20
2018-10-01T22:54:08.090Z,101227.94
2018-10-01T22:56:38.390Z,101225.55
2018-10-01T22:59:08.759Z,101229.41
2018-10-01T23:01:39.098Z,101227.41
2018-10-01T23:04:17.289Z,101231.04
2018-10-01T23:06:47.664Z,101230.25
2018-10-01T23:09:18.034Z,101223.38
2018-10-01T23:11:48.216Z,101225.02
2018-10-01T23:14:18.584Z,101219.98
2018-10-01T23:16:48.990Z,101214.45
2018-10-01T23:19:19.256Z,101218.27
2018-10-01T23:21:49.719Z,101222.33
2018-10-01T23:24:20.095Z,101225.35
2018-10-01T23:26:50.401Z,101225.84
2018-10-01T23:29:20.659Z,101225.27
2018-10-01T23:31:50.924Z,101231.26
2018-10-01T23:34:21.408Z,101226.60
2018-10-01T23:36:51.716Z,101228.54
2018-10-01T23:39:21.961Z,101227.89
2018-10-01T23:41:52.349Z,101229.87
2018-10-01T23:44:22.825Z,101231.58
2018-10-01T23:46:53.235Z,101240.21
2018-10-01T23:49:23.811Z,101245.62
2018-10-01T23:51:54.440Z,101241.53
2018-10-01T23:54:24.756Z,101236.91
2018-10-01T23:56:55.132Z,101245.17
2018-10-01T23:59:25.715Z,101241.28
